Terminal Aerodrome Forecast
Issued by NWS Pocatello, ID

Home | Current Version | Previous Version | Text Only | Print | Product List | Glossary On
Versions: 1 2 3 4 5 6 7 8 9 10 11 12 13 14
889
FTUS45 KPIH 291720
TAFIDA
TAF
KIDA 291720Z 2918/3018 22008KT P6SM SCT070
     FM292100 24015G25KT P6SM FEW060
     FM300400 17008KT P6SM FEW060 SCT100 SCT180
     FM301500 23010KT P6SM FEW035=

USA.gov is the U.S. government's official web portal to all federal, state and local government web resources and services.